createdAt,value
2019-03-22T00:02:14.311Z,8.33
2019-03-22T00:04:44.955Z,8.33
2019-03-22T00:07:15.583Z,8.53
2019-03-22T00:09:46.039Z,7.83
2019-03-22T00:12:17.634Z,8.80
2019-03-22T00:14:48.304Z,8.40
2019-03-22T00:17:18.724Z,8.33
2019-03-22T00:19:49.221Z,8.23
2019-03-22T00:22:19.769Z,7.80
2019-03-22T00:24:50.356Z,8.23
2019-03-22T00:27:20.898Z,7.70
2019-03-22T00:29:51.435Z,7.40
2019-03-22T00:32:21.898Z,7.37
2019-03-22T00:34:52.355Z,7.33
2019-03-22T00:37:22.868Z,7.40
2019-03-22T00:39:53.344Z,7.50
2019-03-22T00:42:23.804Z,7.63
2019-03-22T00:44:54.317Z,7.67
2019-03-22T00:47:24.936Z,7.50
2019-03-22T00:49:55.471Z,7.00
2019-03-22T00:52:26.094Z,7.00
2019-03-22T00:54:56.596Z,7.07
2019-03-22T00:57:28.750Z,7.40
2019-03-22T00:59:59.335Z,7.20
2019-03-22T01:02:29.999Z,7.40
2019-03-22T01:05:00.599Z,7.43
2019-03-22T01:07:31.078Z,7.10
2019-03-22T01:10:01.723Z,7.40
2019-03-22T01:12:32.167Z,7.00
2019-03-22T01:15:02.626Z,7.37
2019-03-22T01:17:34.118Z,7.10
2019-03-22T01:20:05.069Z,7.00
2019-03-22T01:22:35.717Z,6.80
2019-03-22T01:25:06.903Z,6.87
2019-03-22T01:27:40.730Z,7.00
2019-03-22T01:30:10.966Z,6.40
2019-03-22T01:32:41.528Z,6.30
2019-03-22T01:35:12.773Z,6.10
2019-03-22T01:37:43.427Z,6.70
2019-03-22T01:40:15.284Z,6.17
2019-03-22T01:42:45.811Z,6.87
2019-03-22T01:45:17.204Z,6.77
2019-03-22T01:47:47.630Z,6.57
2019-03-22T01:50:18.691Z,6.33
2019-03-22T01:52:49.211Z,6.10
2019-03-22T01:55:19.796Z,6.30
2019-03-22T01:57:53.732Z,5.97
2019-03-22T02:00:22.891Z,6.87
2019-03-22T02:02:53.460Z,6.47
2019-03-22T02:05:24.093Z,6.40
2019-03-22T02:07:54.558Z,6.07
2019-03-22T02:10:25.279Z,6.43
2019-03-22T02:12:55.791Z,6.30
2019-03-22T02:15:26.406Z,6.67
2019-03-22T02:17:56.900Z,6.40
2019-03-22T02:20:27.456Z,6.23
2019-03-22T02:22:58.100Z,6.20
2019-03-22T02:25:28.602Z,6.17
2019-03-22T02:28:04.128Z,6.90
2019-03-22T02:30:31.494Z,6.63
2019-03-22T02:33:01.993Z,5.83
2019-03-22T02:35:32.461Z,6.23
2019-03-22T02:38:04.053Z,6.53
2019-03-22T02:40:34.631Z,6.27
2019-03-22T02:43:05.174Z,6.10
2019-03-22T02:45:35.631Z,6.00
2019-03-22T02:48:06.243Z,5.70
2019-03-22T02:50:36.829Z,6.30
2019-03-22T02:53:07.351Z,6.03
2019-03-22T02:55:37.805Z,5.60
2019-03-22T02:58:19.906Z,6.00
2019-03-22T03:00:40.585Z,6.50
2019-03-22T03:03:11.114Z,6.60
2019-03-22T03:05:41.646Z,5.90
2019-03-22T03:08:12.127Z,5.97
2019-03-22T03:10:42.642Z,5.90
2019-03-22T03:13:13.092Z,5.43
2019-03-22T03:15:43.683Z,5.90
2019-03-22T03:18:14.330Z,6.77
2019-03-22T03:20:44.978Z,6.27
2019-03-22T03:23:15.426Z,6.30
2019-03-22T03:25:45.913Z,5.97
2019-03-22T03:28:16.385Z,6.07
2019-03-22T03:30:46.860Z,6.60
2019-03-22T03:33:17.557Z,6.03
2019-03-22T03:35:48.079Z,6.20
2019-03-22T03:38:18.533Z,6.20
2019-03-22T03:40:49.268Z,5.97
2019-03-22T03:43:19.721Z,5.47
2019-03-22T03:45:50.161Z,6.13
2019-03-22T03:48:20.757Z,6.23
2019-03-22T03:50:51.342Z,5.67
2019-03-22T03:53:21.824Z,5.20
2019-03-22T03:55:52.270Z,5.80
2019-03-22T03:58:22.807Z,5.23
2019-03-22T04:00:53.317Z,5.83
2019-03-22T04:03:23.791Z,5.37
2019-03-22T04:05:54.260Z,5.47
2019-03-22T04:08:24.753Z,5.70
2019-03-22T04:10:55.234Z,5.50
2019-03-22T04:13:25.736Z,5.70
2019-03-22T04:15:56.163Z,5.70
2019-03-22T04:18:26.675Z,6.03
2019-03-22T04:20:57.242Z,5.50
2019-03-22T04:23:27.893Z,5.23
2019-03-22T04:25:58.303Z,5.20
2019-03-22T04:28:28.832Z,6.23
2019-03-22T04:30:59.486Z,5.60
2019-03-22T04:33:29.974Z,5.47
2019-03-22T04:36:00.545Z,5.33
2019-03-22T04:38:31.001Z,5.47
2019-03-22T04:41:01.494Z,5.40
2019-03-22T04:43:32.090Z,5.80
2019-03-22T04:46:02.932Z,5.30
2019-03-22T04:48:37.152Z,5.80
2019-03-22T04:51:08.654Z,5.67
2019-03-22T04:53:49.327Z,5.50
2019-03-22T04:56:21.579Z,5.50
2019-03-22T04:58:53.378Z,5.47
2019-03-22T05:01:24.774Z,5.27
2019-03-22T05:03:55.739Z,5.60
2019-03-22T05:06:27.014Z,6.00
2019-03-22T05:08:59.969Z,5.90
2019-03-22T05:11:31.331Z,6.00
2019-03-22T05:14:04.147Z,5.47
2019-03-22T05:16:37.611Z,5.97
2019-03-22T05:19:10.642Z,5.57
2019-03-22T05:21:41.640Z,5.60
2019-03-22T05:24:13.075Z,6.43
2019-03-22T05:26:45.823Z,5.83
2019-03-22T05:29:17.034Z,5.70
2019-03-22T05:32:16.078Z,5.43
2019-03-22T05:34:46.581Z,5.50
2019-03-22T05:37:17.065Z,5.70
2019-03-22T05:39:48.522Z,5.60
2019-03-22T05:42:18.987Z,6.37
2019-03-22T05:44:49.447Z,5.90
2019-03-22T05:47:19.978Z,6.47
2019-03-22T05:49:50.442Z,6.60
2019-03-22T05:52:21.057Z,6.73
2019-03-22T05:54:51.523Z,7.17
2019-03-22T05:57:21.986Z,7.67
2019-03-22T05:59:52.563Z,8.07
2019-03-22T06:02:23.035Z,8.53
2019-03-22T06:04:53.525Z,8.40
2019-03-22T06:07:24.054Z,8.27
2019-03-22T06:09:54.648Z,8.57
2019-03-22T06:12:25.297Z,7.87
2019-03-22T06:14:55.886Z,7.67
2019-03-22T06:17:26.416Z,7.90
2019-03-22T06:19:56.863Z,8.03
2019-03-22T06:22:27.482Z,8.40
2019-03-22T06:24:57.934Z,8.30
2019-03-22T06:27:28.476Z,7.77
2019-03-22T06:29:58.931Z,9.20
2019-03-22T06:32:29.482Z,8.80
2019-03-22T06:35:00.361Z,9.47
2019-03-22T06:37:30.969Z,9.87
2019-03-22T06:40:01.544Z,10.00
2019-03-22T06:42:32.225Z,9.80
2019-03-22T06:45:02.721Z,10.00
2019-03-22T06:47:33.168Z,10.60
2019-03-22T06:50:03.794Z,10.27
2019-03-22T06:52:34.254Z,10.97
2019-03-22T06:55:04.873Z,11.20
2019-03-22T06:57:35.373Z,11.80
2019-03-22T07:00:07.483Z,11.53
2019-03-22T07:02:38.306Z,12.27
2019-03-22T07:05:09.040Z,12.47
2019-03-22T07:07:39.588Z,12.83
2019-03-22T07:10:10.314Z,12.97
2019-03-22T07:12:40.729Z,13.03
2019-03-22T07:15:11.513Z,13.70
2019-03-22T07:17:41.975Z,13.70
2019-03-22T07:20:12.619Z,13.93
2019-03-22T07:22:43.152Z,14.37
2019-03-22T07:25:13.803Z,14.70
2019-03-22T07:27:44.506Z,14.13
2019-03-22T07:30:19.085Z,15.10
2019-03-22T07:32:47.506Z,15.80
2019-03-22T07:35:18.179Z,15.57
2019-03-22T07:37:48.748Z,15.37
2019-03-22T07:40:19.402Z,14.67
2019-03-22T07:42:49.966Z,15.80
2019-03-22T07:45:20.382Z,15.90
2019-03-22T07:47:50.800Z,16.37
2019-03-22T07:50:21.353Z,15.40
2019-03-22T07:52:51.796Z,15.73
2019-03-22T07:55:22.259Z,16.57
2019-03-22T07:57:53.015Z,16.47
2019-03-22T08:00:30.751Z,16.17
2019-03-22T08:02:55.724Z,16.57
2019-03-22T08:05:26.161Z,16.43
2019-03-22T08:07:56.695Z,17.30
2019-03-22T08:10:27.429Z,15.70
2019-03-22T08:12:57.889Z,16.87
2019-03-22T08:15:33.171Z,16.60
2019-03-22T08:18:03.860Z,16.07
2019-03-22T08:20:34.713Z,16.13
2019-03-22T08:23:11.209Z,16.03
2019-03-22T08:25:43.551Z,16.27
2019-03-22T08:28:13.820Z,16.67
2019-03-22T08:30:44.335Z,15.73
2019-03-22T08:33:15.022Z,16.50
2019-03-22T08:35:45.559Z,16.30
2019-03-22T08:38:17.492Z,17.07
2019-03-22T08:40:48.416Z,16.53
2019-03-22T08:43:19.044Z,16.57
2019-03-22T08:45:49.627Z,16.60
2019-03-22T08:48:20.193Z,16.40
2019-03-22T08:50:50.618Z,15.63
2019-03-22T08:53:21.282Z,16.07
2019-03-22T08:55:51.983Z,16.07
2019-03-22T08:58:22.494Z,15.90
2019-03-22T09:00:57.698Z,15.77
2019-03-22T09:03:25.472Z,16.33
2019-03-22T09:05:55.884Z,17.20
2019-03-22T09:08:26.484Z,16.00
2019-03-22T09:10:57.138Z,15.07
2019-03-22T09:13:27.693Z,15.00
2019-03-22T09:15:58.149Z,16.07
2019-03-22T09:18:28.682Z,16.13
2019-03-22T09:20:59.211Z,15.87
2019-03-22T09:23:29.727Z,15.57
2019-03-22T09:26:00.380Z,16.17
2019-03-22T09:28:30.894Z,15.23
2019-03-22T09:31:10.251Z,15.87
2019-03-22T09:33:33.695Z,15.13
2019-03-22T09:36:04.418Z,16.60
2019-03-22T09:38:34.953Z,16.73
2019-03-22T09:41:05.528Z,15.27
2019-03-22T09:43:36.115Z,16.97
2019-03-22T09:46:06.682Z,16.47
2019-03-22T09:48:37.424Z,15.60
2019-03-22T09:51:07.871Z,15.50
2019-03-22T09:53:38.309Z,15.30
2019-03-22T09:56:08.797Z,15.70
2019-03-22T09:58:39.455Z,15.13
2019-03-22T10:01:22.875Z,14.03
2019-03-22T10:03:42.726Z,14.10
2019-03-22T10:06:13.347Z,13.30
2019-03-22T10:08:43.782Z,14.53
2019-03-22T10:11:14.512Z,14.47
2019-03-22T10:13:48.014Z,14.83
2019-03-22T10:16:17.339Z,15.03
2019-03-22T10:18:47.851Z,15.10
2019-03-22T10:21:22.591Z,14.27
2019-03-22T10:23:50.667Z,14.80
2019-03-22T10:26:21.146Z,15.90
2019-03-22T10:28:51.678Z,15.23
2019-03-22T10:31:22.184Z,14.33
2019-03-22T10:33:52.667Z,15.73
2019-03-22T10:36:23.193Z,16.77
2019-03-22T10:38:53.711Z,15.27
2019-03-22T10:41:24.183Z,15.00
2019-03-22T10:43:54.666Z,16.03
2019-03-22T10:46:25.191Z,14.47
2019-03-22T10:48:55.778Z,14.90
2019-03-22T10:51:26.515Z,14.47
2019-03-22T10:53:57.214Z,13.27
2019-03-22T10:56:27.688Z,13.90
2019-03-22T10:58:58.276Z,13.97
2019-03-22T11:01:28.767Z,14.93
2019-03-22T11:03:59.553Z,15.67
2019-03-22T11:06:30.191Z,16.03
2019-03-22T11:09:00.713Z,14.07
2019-03-22T11:11:31.472Z,14.30
2019-03-22T11:14:02.066Z,13.43
2019-03-22T11:16:32.682Z,13.60
2019-03-22T11:19:03.283Z,14.03
2019-03-22T11:21:33.836Z,14.03
2019-03-22T11:24:04.618Z,13.43
2019-03-22T11:26:35.223Z,12.87
2019-03-22T11:29:05.943Z,11.73
2019-03-22T11:31:40.131Z,11.80
2019-03-22T11:34:09.068Z,12.00
2019-03-22T11:36:39.684Z,11.17
2019-03-22T11:39:15.775Z,11.83
2019-03-22T11:41:44.981Z,12.03
2019-03-22T11:44:15.596Z,11.60
2019-03-22T11:46:46.164Z,11.53
2019-03-22T11:49:16.771Z,12.30
2019-03-22T11:51:47.280Z,10.73
2019-03-22T11:54:17.747Z,11.33
2019-03-22T11:56:48.377Z,11.13
2019-03-22T11:59:18.962Z,11.23
2019-03-22T12:01:49.559Z,10.70
2019-03-22T12:04:20.092Z,11.53
2019-03-22T12:06:50.670Z,11.27
2019-03-22T12:09:22.950Z,11.60
2019-03-22T12:11:54.297Z,12.23
2019-03-22T12:14:24.863Z,11.93
2019-03-22T12:16:56.733Z,11.87
2019-03-22T12:19:27.575Z,11.60
2019-03-22T12:21:58.079Z,11.10
2019-03-22T12:24:28.528Z,11.43
2019-03-22T12:26:59.044Z,10.97
2019-03-22T12:29:29.836Z,9.47
2019-03-22T12:32:00.449Z,8.47
2019-03-22T12:34:30.905Z,9.90
2019-03-22T12:37:01.394Z,9.87
2019-03-22T12:39:32.065Z,10.20
2019-03-22T12:42:02.593Z,9.57
2019-03-22T12:44:33.147Z,9.50
2019-03-22T12:47:03.576Z,9.60
2019-03-22T12:49:34.254Z,9.10
2019-03-22T12:52:04.890Z,9.23
2019-03-22T12:54:35.330Z,10.13
2019-03-22T12:57:05.922Z,9.37
2019-03-22T12:59:36.527Z,10.50
2019-03-22T13:02:07.017Z,9.93
2019-03-22T13:04:37.552Z,11.47
2019-03-22T13:07:09.161Z,10.90
2019-03-22T13:09:39.767Z,11.30
2019-03-22T13:12:10.467Z,12.03
2019-03-22T13:14:40.911Z,11.20
2019-03-22T13:17:11.567Z,11.07
2019-03-22T13:19:42.084Z,11.93
2019-03-22T13:22:12.564Z,12.50
2019-03-22T13:24:43.025Z,13.60
2019-03-22T13:27:13.551Z,14.33
2019-03-22T13:29:44.030Z,14.40
2019-03-22T13:32:14.513Z,14.63
2019-03-22T13:34:45.010Z,14.07
2019-03-22T13:37:15.437Z,15.20
2019-03-22T13:39:45.921Z,15.13
2019-03-22T13:42:16.591Z,14.50
2019-03-22T13:44:47.094Z,15.00
2019-03-22T13:47:17.544Z,14.77
2019-03-22T13:49:47.962Z,14.67
2019-03-22T13:52:18.487Z,13.80
2019-03-22T13:54:48.946Z,13.60
2019-03-22T13:57:19.529Z,14.17
2019-03-22T13:59:50.041Z,13.93
2019-03-22T14:02:20.539Z,12.80
2019-03-22T14:04:51.086Z,12.73
2019-03-22T14:07:21.629Z,12.63
2019-03-22T14:09:52.182Z,12.40
2019-03-22T14:12:22.663Z,12.07
2019-03-22T14:14:53.360Z,12.40
2019-03-22T14:17:23.867Z,11.47
2019-03-22T14:19:54.345Z,12.20
2019-03-22T14:22:24.802Z,11.53
2019-03-22T14:24:55.314Z,12.53
2019-03-22T14:27:25.757Z,12.40
2019-03-22T14:29:56.503Z,11.50
2019-03-22T14:32:27.251Z,13.37
2019-03-22T14:34:57.786Z,13.53
2019-03-22T14:37:28.259Z,12.43
2019-03-22T14:39:58.832Z,14.63
2019-03-22T14:42:29.308Z,15.47
2019-03-22T14:44:59.803Z,18.63
2019-03-22T14:47:30.343Z,21.47
2019-03-22T14:50:00.797Z,24.73
2019-03-22T14:52:31.327Z,25.67
2019-03-22T14:55:01.915Z,28.83
2019-03-22T14:57:32.400Z,29.70
2019-03-22T15:00:03.194Z,28.10
2019-03-22T15:02:33.799Z,30.20
2019-03-22T15:05:04.392Z,30.77
2019-03-22T15:07:34.891Z,29.17
2019-03-22T15:10:06.057Z,28.37
2019-03-22T15:12:36.674Z,26.03
2019-03-22T15:15:29.729Z,24.97
2019-03-22T15:18:28.455Z,23.13
2019-03-22T15:21:28.155Z,22.97
2019-03-22T15:24:23.706Z,22.27
2019-03-22T15:27:22.154Z,21.33
2019-03-22T15:30:10.877Z,20.03
2019-03-22T15:33:12.578Z,19.03
2019-03-22T15:36:01.277Z,18.13
2019-03-22T15:39:03.309Z,16.93
2019-03-22T15:41:34.113Z,16.77
2019-03-22T15:44:04.829Z,16.70
2019-03-22T15:46:35.361Z,16.10
2019-03-22T15:49:06.168Z,16.90
2019-03-22T15:51:36.890Z,15.67
2019-03-22T15:54:07.494Z,17.13
2019-03-22T15:56:38.035Z,16.40
2019-03-22T15:59:08.638Z,15.83
2019-03-22T16:01:39.244Z,15.27
2019-03-22T16:04:09.970Z,14.60
2019-03-22T16:06:40.505Z,15.07
2019-03-22T16:09:11.026Z,16.37
2019-03-22T16:11:41.683Z,15.73
2019-03-22T16:14:12.192Z,15.00
2019-03-22T16:16:42.791Z,15.10
2019-03-22T16:19:13.511Z,15.93
2019-03-22T16:21:43.997Z,15.20
2019-03-22T16:24:14.558Z,15.20
2019-03-22T16:26:45.060Z,14.57
2019-03-22T16:29:15.646Z,13.43
2019-03-22T16:31:46.323Z,13.10
2019-03-22T16:34:16.838Z,13.97
2019-03-22T16:36:47.470Z,13.13
2019-03-22T16:39:17.879Z,13.90
2019-03-22T16:41:49.592Z,12.93
2019-03-22T16:44:20.013Z,13.37
2019-03-22T16:46:50.611Z,12.13
2019-03-22T16:49:21.093Z,14.07
2019-03-22T16:51:51.561Z,13.47
2019-03-22T16:54:22.066Z,12.60
2019-03-22T16:56:52.798Z,12.20
2019-03-22T16:59:23.242Z,12.20
2019-03-22T17:01:53.890Z,11.83
2019-03-22T17:04:24.363Z,12.60
2019-03-22T17:06:54.849Z,11.77
2019-03-22T17:09:25.349Z,12.13
2019-03-22T17:11:55.960Z,10.87
2019-03-22T17:14:26.430Z,11.37
2019-03-22T17:16:56.900Z,11.00
2019-03-22T17:19:27.527Z,11.17
2019-03-22T17:21:58.092Z,10.37
2019-03-22T17:24:28.802Z,11.43
2019-03-22T17:26:59.374Z,10.83
2019-03-22T17:29:29.816Z,11.10
2019-03-22T17:32:00.294Z,10.73
2019-03-22T17:34:30.818Z,10.37
2019-03-22T17:37:01.386Z,11.13
2019-03-22T17:39:31.832Z,10.37
2019-03-22T17:42:02.580Z,11.10
2019-03-22T17:44:33.145Z,10.37
2019-03-22T17:47:03.735Z,10.77
2019-03-22T17:49:34.198Z,10.23
2019-03-22T17:52:05.456Z,10.20
2019-03-22T17:54:36.186Z,10.83
2019-03-22T17:57:06.711Z,11.07
2019-03-22T17:59:37.252Z,10.97
2019-03-22T18:02:07.912Z,10.23
2019-03-22T18:04:38.400Z,11.50
2019-03-22T18:07:09.014Z,11.50
2019-03-22T18:09:39.504Z,10.40
2019-03-22T18:12:10.013Z,10.97
2019-03-22T18:14:40.729Z,11.13
2019-03-22T18:17:12.243Z,10.83
2019-03-22T18:19:42.846Z,10.43
2019-03-22T18:22:13.401Z,11.20
2019-03-22T18:24:43.891Z,12.33
2019-03-22T18:27:14.532Z,12.07
2019-03-22T18:29:45.170Z,11.87
2019-03-22T18:32:15.665Z,12.87
2019-03-22T18:34:46.087Z,11.63
2019-03-22T18:37:16.648Z,10.80
2019-03-22T18:39:47.110Z,11.33
2019-03-22T18:42:17.611Z,11.33
2019-03-22T18:44:48.149Z,10.73
2019-03-22T18:47:18.774Z,11.57
2019-03-22T18:49:49.277Z,12.43
2019-03-22T18:52:19.805Z,11.50
2019-03-22T18:54:50.312Z,12.77
2019-03-22T18:57:20.807Z,11.70
2019-03-22T18:59:51.272Z,12.40
2019-03-22T19:02:21.907Z,11.80
2019-03-22T19:04:52.358Z,11.07
2019-03-22T19:07:22.770Z,11.80
2019-03-22T19:09:53.422Z,11.80
2019-03-22T19:12:23.932Z,11.97
2019-03-22T19:14:54.577Z,11.73
2019-03-22T19:17:25.188Z,12.67
2019-03-22T19:19:55.599Z,13.63
2019-03-22T19:22:26.025Z,12.03
2019-03-22T19:24:56.539Z,12.50
2019-03-22T19:27:27.198Z,12.43
2019-03-22T19:29:57.757Z,12.87
2019-03-22T19:32:28.333Z,13.17
2019-03-22T19:34:58.774Z,12.73
2019-03-22T19:37:29.436Z,13.80
2019-03-22T19:40:00.316Z,13.97
2019-03-22T19:42:30.805Z,13.23
2019-03-22T19:45:01.280Z,14.17
2019-03-22T19:47:31.790Z,14.67
2019-03-22T19:50:02.317Z,13.97
2019-03-22T19:52:32.814Z,14.60
2019-03-22T19:55:03.607Z,15.03
2019-03-22T19:57:34.287Z,16.53
2019-03-22T20:00:05.126Z,16.93
2019-03-22T20:02:35.883Z,17.60
2019-03-22T20:05:07.706Z,18.00
2019-03-22T20:07:38.348Z,18.53
2019-03-22T20:10:10.049Z,18.77
2019-03-22T20:12:41.119Z,19.20
2019-03-22T20:15:11.984Z,19.17
2019-03-22T20:17:42.585Z,20.00
2019-03-22T20:20:13.529Z,20.37
2019-03-22T20:22:44.000Z,19.33
2019-03-22T20:25:14.824Z,19.63
2019-03-22T20:27:45.592Z,19.97
2019-03-22T20:30:16.827Z,19.97
2019-03-22T20:32:47.905Z,18.83
2019-03-22T20:35:18.914Z,19.33
2019-03-22T20:37:49.542Z,18.90
2019-03-22T20:40:20.349Z,18.10
2019-03-22T20:42:51.019Z,18.90
2019-03-22T20:45:24.409Z,18.67
2019-03-22T20:47:54.328Z,18.03
2019-03-22T20:50:35.118Z,17.60
2019-03-22T20:52:57.308Z,17.77
2019-03-22T20:55:27.954Z,18.23
2019-03-22T20:57:58.833Z,19.87
2019-03-22T21:00:29.420Z,18.77
2019-03-22T21:03:01.225Z,19.47
2019-03-22T21:05:32.098Z,19.97
2019-03-22T21:08:02.774Z,19.23
2019-03-22T21:10:33.310Z,19.10
2019-03-22T21:13:04.013Z,18.83
2019-03-22T21:15:34.470Z,18.47
2019-03-22T21:18:05.016Z,17.93
2019-03-22T21:20:35.524Z,18.73
2019-03-22T21:23:06.116Z,18.73
2019-03-22T21:25:36.628Z,17.03
2019-03-22T21:28:07.292Z,18.07
2019-03-22T21:30:37.805Z,16.57
2019-03-22T21:33:08.379Z,17.43
2019-03-22T21:35:38.914Z,16.93
2019-03-22T21:38:11.318Z,18.17
2019-03-22T21:40:42.044Z,19.40
2019-03-22T21:43:12.662Z,18.93
2019-03-22T21:45:43.093Z,20.07
2019-03-22T21:48:13.639Z,21.03
2019-03-22T21:50:44.190Z,19.07
2019-03-22T21:53:14.814Z,19.13
2019-03-22T21:55:45.585Z,19.73
2019-03-22T21:58:16.101Z,22.53
2019-03-22T22:00:46.527Z,20.60
2019-03-22T22:03:17.069Z,18.67
2019-03-22T22:05:48.259Z,16.87
2019-03-22T22:08:18.898Z,18.57
2019-03-22T22:10:59.358Z,18.57
2019-03-22T22:13:21.716Z,16.77
2019-03-22T22:15:52.254Z,15.90
2019-03-22T22:18:22.712Z,16.87
2019-03-22T22:20:53.214Z,16.83
2019-03-22T22:23:23.738Z,16.30
2019-03-22T22:25:54.284Z,16.80
2019-03-22T22:28:24.817Z,15.70
2019-03-22T22:30:55.312Z,15.23
2019-03-22T22:33:25.865Z,16.20
2019-03-22T22:35:58.879Z,14.40
2019-03-22T22:38:28.535Z,16.10
2019-03-22T22:40:59.048Z,15.70
2019-03-22T22:43:29.519Z,14.70
2019-03-22T22:45:59.969Z,14.60
2019-03-22T22:48:30.504Z,14.93
2019-03-22T22:51:01.117Z,14.57
2019-03-22T22:53:31.682Z,13.67
2019-03-22T22:56:02.192Z,14.10
2019-03-22T22:58:32.807Z,14.50
2019-03-22T23:01:03.323Z,14.20
2019-03-22T23:03:34.006Z,14.53
2019-03-22T23:06:09.342Z,13.93
2019-03-22T23:08:36.789Z,15.00
2019-03-22T23:11:07.370Z,14.17
2019-03-22T23:13:37.855Z,14.20
2019-03-22T23:16:08.481Z,14.53
2019-03-22T23:18:39.171Z,15.50
2019-03-22T23:21:09.658Z,15.00
2019-03-22T23:23:40.188Z,13.40
2019-03-22T23:26:10.671Z,14.17
2019-03-22T23:28:41.152Z,13.77
2019-03-22T23:31:11.714Z,14.23
2019-03-22T23:33:42.159Z,13.80
2019-03-22T23:36:20.185Z,13.20
2019-03-22T23:38:45.002Z,13.13
2019-03-22T23:41:15.606Z,13.17
2019-03-22T23:43:46.117Z,12.67
2019-03-22T23:46:16.779Z,13.17
2019-03-22T23:48:47.189Z,13.17
2019-03-22T23:51:17.619Z,13.00
2019-03-22T23:53:48.137Z,14.20
2019-03-22T23:56:18.711Z,12.17
2019-03-22T23:58:49.288Z,12.90
